Startpagina
METAR-TAF:

METAR-TAF

Vliegvelden :

Turijn, Italië

breedte: 45-05-20N, lengte: 007-36-20E, hoogte: 288 m

Actueel weer

Dit bericht is 2 uur en het 48 minuten geleden gemaakt, om 17:18 UTC
Wind 9 kt uit het westen
Temperatuur 16°C
Vochtigheid 88%
Druk 1006 hPa
Zicht 10 km of meer
Gebroken wolken op 3000 ft, Cumulonimbus.
onweer, regen

METAR: LIMA 031718Z 27009KT 9999 TSRA BKN030CB 16/14 Q1006

Tijdstip: 22:06 (20:06 UTC)


TAF: ontbreekt

Waarnemingen en weersverwachtingen van meer dan 4000 vliegvelden (METAR en TAF).

De beschikbare stations zijn de gele en rode punten op de kaart.

Ga met uw muis naar het station om de naam te zien.

Klik dan om waarnemingen en weersverwachtingen te zien.

kaart wijzigen: klik op de groene knoppen met een zwart kruis om in te zoomen, op de groene knop met een streepje om uit te zoomen of op de groene pijlen voor aangrenzende kaarten.


METAR-TAF: